sensor_id;sensor_type;location;lat;lon;timestamp;temperature;humidity
40323;DHT22;26030;51.164;17.100;2023-10-13T00:03:23;20.10;60.40
40323;DHT22;26030;51.164;17.100;2023-10-13T00:08:28;20.00;60.40
40323;DHT22;26030;51.164;17.100;2023-10-13T00:13:31;20.00;60.50
40323;DHT22;26030;51.164;17.100;2023-10-13T00:18:44;20.00;60.40
40323;DHT22;26030;51.164;17.100;2023-10-13T00:23:47;20.00;60.90
40323;DHT22;26030;51.164;17.100;2023-10-13T00:29:00;20.00;60.30
40323;DHT22;26030;51.164;17.100;2023-10-13T00:34:32;20.10;60.40
40323;DHT22;26030;51.164;17.100;2023-10-13T00:39:35;20.10;60.30
40323;DHT22;26030;51.164;17.100;2023-10-13T00:44:40;20.00;60.30
40323;DHT22;26030;51.164;17.100;2023-10-13T00:49:51;20.00;60.70
40323;DHT22;26030;51.164;17.100;2023-10-13T00:54:53;20.00;60.40
40323;DHT22;26030;51.164;17.100;2023-10-13T00:59:56;20.00;60.40
40323;DHT22;26030;51.164;17.100;2023-10-13T01:05:01;20.00;60.40
40323;DHT22;26030;51.164;17.100;2023-10-13T01:10:09;20.00;60.40
40323;DHT22;26030;51.164;17.100;2023-10-13T01:15:15;20.00;60.30
40323;DHT22;26030;51.164;17.100;2023-10-13T01:20:23;20.00;60.30
40323;DHT22;26030;51.164;17.100;2023-10-13T01:25:28;20.00;60.80
40323;DHT22;26030;51.164;17.100;2023-10-13T01:30:31;20.00;60.40
40323;DHT22;26030;51.164;17.100;2023-10-13T01:35:34;20.00;60.50
40323;DHT22;26030;51.164;17.100;2023-10-13T01:40:46;20.00;60.40
40323;DHT22;26030;51.164;17.100;2023-10-13T01:45:53;20.00;60.40
40323;DHT22;26030;51.164;17.100;2023-10-13T01:50:57;20.00;60.30
40323;DHT22;26030;51.164;17.100;2023-10-13T01:56:03;20.00;61.00
40323;DHT22;26030;51.164;17.100;2023-10-13T02:01:09;20.00;60.40
40323;DHT22;26030;51.164;17.100;2023-10-13T02:06:13;20.00;60.30
40323;DHT22;26030;51.164;17.100;2023-10-13T02:11:19;20.00;60.30
40323;DHT22;26030;51.164;17.100;2023-10-13T02:16:23;20.00;61.10
40323;DHT22;26030;51.164;17.100;2023-10-13T02:21:28;20.00;60.30
40323;DHT22;26030;51.164;17.100;2023-10-13T02:26:34;20.00;60.40
40323;DHT22;26030;51.164;17.100;2023-10-13T02:31:42;20.00;60.60
40323;DHT22;26030;51.164;17.100;2023-10-13T02:36:45;20.00;60.30
40323;DHT22;26030;51.164;17.100;2023-10-13T02:41:51;20.00;60.40
40323;DHT22;26030;51.164;17.100;2023-10-13T02:46:54;20.00;60.50
40323;DHT22;26030;51.164;17.100;2023-10-13T02:51:58;19.90;60.40
40323;DHT22;26030;51.164;17.100;2023-10-13T02:57:06;20.00;60.80
40323;DHT22;26030;51.164;17.100;2023-10-13T03:02:09;20.00;60.40
40323;DHT22;26030;51.164;17.100;2023-10-13T03:07:21;19.90;60.40
40323;DHT22;26030;51.164;17.100;2023-10-13T03:12:31;20.00;60.20
40323;DHT22;26030;51.164;17.100;2023-10-13T03:17:36;20.00;60.50
40323;DHT22;26030;51.164;17.100;2023-10-13T03:22:38;20.00;60.70
40323;DHT22;26030;51.164;17.100;2023-10-13T03:27:43;20.00;60.40
40323;DHT22;26030;51.164;17.100;2023-10-13T03:32:55;20.00;60.40
40323;DHT22;26030;51.164;17.100;2023-10-13T03:37:59;19.90;60.50
40323;DHT22;26030;51.164;17.100;2023-10-13T03:43:01;20.00;60.80
40323;DHT22;26030;51.164;17.100;2023-10-13T03:48:08;19.90;60.40
40323;DHT22;26030;51.164;17.100;2023-10-13T03:53:12;20.00;60.50
40323;DHT22;26030;51.164;17.100;2023-10-13T03:58:15;19.90;60.30
40323;DHT22;26030;51.164;17.100;2023-10-13T04:03:19;19.90;60.40
40323;DHT22;26030;51.164;17.100;2023-10-13T04:08:37;19.90;60.30
40323;DHT22;26030;51.164;17.100;2023-10-13T04:13:45;20.00;60.30
40323;DHT22;26030;51.164;17.100;2023-10-13T04:19:07;20.00;60.30
40323;DHT22;26030;51.164;17.100;2023-10-13T04:24:11;20.00;60.30
40323;DHT22;26030;51.164;17.100;2023-10-13T04:29:20;19.90;60.60
40323;DHT22;26030;51.164;17.100;2023-10-13T04:34:42;19.90;60.30
40323;DHT22;26030;51.164;17.100;2023-10-13T04:39:48;19.90;60.30
40323;DHT22;26030;51.164;17.100;2023-10-13T04:44:59;20.00;60.30
40323;DHT22;26030;51.164;17.100;2023-10-13T04:50:18;19.90;60.30
40323;DHT22;26030;51.164;17.100;2023-10-13T04:55:29;19.90;60.60
40323;DHT22;26030;51.164;17.100;2023-10-13T05:00:50;20.00;60.30
40323;DHT22;26030;51.164;17.100;2023-10-13T05:06:12;19.90;60.20
40323;DHT22;26030;51.164;17.100;2023-10-13T05:11:33;20.00;60.30
40323;DHT22;26030;51.164;17.100;2023-10-13T05:16:54;19.90;60.30
40323;DHT22;26030;51.164;17.100;2023-10-13T05:22:16;19.90;60.20
40323;DHT22;26030;51.164;17.100;2023-10-13T05:27:37;19.90;60.30
40323;DHT22;26030;51.164;17.100;2023-10-13T05:32:59;19.90;60.40
40323;DHT22;26030;51.164;17.100;2023-10-13T05:38:21;19.90;60.30
40323;DHT22;26030;51.164;17.100;2023-10-13T05:43:43;19.90;60.30
40323;DHT22;26030;51.164;17.100;2023-10-13T05:49:06;19.90;60.30
40323;DHT22;26030;51.164;17.100;2023-10-13T05:54:19;19.90;60.20
40323;DHT22;26030;51.164;17.100;2023-10-13T05:59:40;19.90;60.30
40323;DHT22;26030;51.164;17.100;2023-10-13T06:05:05;19.90;60.20
40323;DHT22;26030;51.164;17.100;2023-10-13T06:10:26;19.90;60.10
40323;DHT22;26030;51.164;17.100;2023-10-13T06:15:48;19.90;60.70
40323;DHT22;26030;51.164;17.100;2023-10-13T06:21:09;19.90;60.30
40323;DHT22;26030;51.164;17.100;2023-10-13T06:26:30;19.90;61.00
40323;DHT22;26030;51.164;17.100;2023-10-13T06:31:51;19.90;60.50
40323;DHT22;26030;51.164;17.100;2023-10-13T06:36:54;19.90;60.50
40323;DHT22;26030;51.164;17.100;2023-10-13T06:41:57;19.80;60.50
40323;DHT22;26030;51.164;17.100;2023-10-13T06:47:00;19.90;60.50
40323;DHT22;26030;51.164;17.100;2023-10-13T06:52:06;19.90;60.30
40323;DHT22;26030;51.164;17.100;2023-10-13T06:57:09;20.00;60.30
40323;DHT22;26030;51.164;17.100;2023-10-13T07:02:23;20.10;60.30
40323;DHT22;26030;51.164;17.100;2023-10-13T07:07:30;20.10;60.30
40323;DHT22;26030;51.164;17.100;2023-10-13T07:12:33;20.20;60.10
40323;DHT22;26030;51.164;17.100;2023-10-13T07:17:36;20.20;60.10
40323;DHT22;26030;51.164;17.100;2023-10-13T07:22:42;20.20;60.00
40323;DHT22;26030;51.164;17.100;2023-10-13T07:27:57;20.30;60.00
40323;DHT22;26030;51.164;17.100;2023-10-13T07:33:00;20.30;59.90
40323;DHT22;26030;51.164;17.100;2023-10-13T07:38:03;20.30;59.90
40323;DHT22;26030;51.164;17.100;2023-10-13T07:43:10;20.30;59.70
40323;DHT22;26030;51.164;17.100;2023-10-13T07:48:14;20.40;59.60
40323;DHT22;26030;51.164;17.100;2023-10-13T07:53:23;20.50;59.50
40323;DHT22;26030;51.164;17.100;2023-10-13T07:58:26;20.50;59.80
40323;DHT22;26030;51.164;17.100;2023-10-13T08:03:29;20.50;59.40
40323;DHT22;26030;51.164;17.100;2023-10-13T08:08:39;20.50;59.60
40323;DHT22;26030;51.164;17.100;2023-10-13T08:13:43;20.50;59.60
40323;DHT22;26030;51.164;17.100;2023-10-13T08:19:04;20.50;59.50
40323;DHT22;26030;51.164;17.100;2023-10-13T08:24:10;20.60;59.50
40323;DHT22;26030;51.164;17.100;2023-10-13T08:29:17;20.60;59.50
40323;DHT22;26030;51.164;17.100;2023-10-13T08:34:26;20.70;59.60
40323;DHT22;26030;51.164;17.100;2023-10-13T08:39:32;20.60;59.60
40323;DHT22;26030;51.164;17.100;2023-10-13T08:44:53;20.70;59.60
40323;DHT22;26030;51.164;17.100;2023-10-13T08:49:56;20.70;59.50
40323;DHT22;26030;51.164;17.100;2023-10-13T08:55:12;20.70;59.70
40323;DHT22;26030;51.164;17.100;2023-10-13T09:00:35;20.70;59.50
40323;DHT22;26030;51.164;17.100;2023-10-13T09:05:57;20.80;59.50
40323;DHT22;26030;51.164;17.100;2023-10-13T09:11:08;20.80;59.50
40323;DHT22;26030;51.164;17.100;2023-10-13T09:16:15;20.90;59.40
40323;DHT22;26030;51.164;17.100;2023-10-13T09:21:44;20.90;59.40
40323;DHT22;26030;51.164;17.100;2023-10-13T09:26:50;20.90;59.50
40323;DHT22;26030;51.164;17.100;2023-10-13T09:32:00;20.90;59.40
40323;DHT22;26030;51.164;17.100;2023-10-13T09:37:04;21.00;59.60
40323;DHT22;26030;51.164;17.100;2023-10-13T09:42:07;21.00;59.50
40323;DHT22;26030;51.164;17.100;2023-10-13T09:47:12;21.00;59.40
40323;DHT22;26030;51.164;17.100;2023-10-13T09:52:20;21.00;59.50
40323;DHT22;26030;51.164;17.100;2023-10-13T09:57:29;20.90;59.40
40323;DHT22;26030;51.164;17.100;2023-10-13T10:02:37;20.90;59.80
40323;DHT22;26030;51.164;17.100;2023-10-13T10:07:53;21.00;59.50
40323;DHT22;26030;51.164;17.100;2023-10-13T10:13:01;21.00;59.50
40323;DHT22;26030;51.164;17.100;2023-10-13T10:18:16;21.00;59.80
40323;DHT22;26030;51.164;17.100;2023-10-13T10:23:25;21.00;59.50
40323;DHT22;26030;51.164;17.100;2023-10-13T10:28:34;21.00;59.50
40323;DHT22;26030;51.164;17.100;2023-10-13T10:33:41;21.10;59.70
40323;DHT22;26030;51.164;17.100;2023-10-13T10:38:53;21.20;59.30
40323;DHT22;26030;51.164;17.100;2023-10-13T10:44:01;21.20;59.30
40323;DHT22;26030;51.164;17.100;2023-10-13T10:49:11;21.30;59.40
40323;DHT22;26030;51.164;17.100;2023-10-13T10:54:17;21.40;58.90
40323;DHT22;26030;51.164;17.100;2023-10-13T10:59:21;21.50;58.80
40323;DHT22;26030;51.164;17.100;2023-10-13T11:04:27;21.60;58.70
40323;DHT22;26030;51.164;17.100;2023-10-13T11:09:36;21.60;58.60
40323;DHT22;26030;51.164;17.100;2023-10-13T11:14:48;21.70;58.90
40323;DHT22;26030;51.164;17.100;2023-10-13T11:19:52;21.70;58.40
40323;DHT22;26030;51.164;17.100;2023-10-13T11:24:55;21.70;58.60
40323;DHT22;26030;51.164;17.100;2023-10-13T11:30:01;21.70;58.60
40323;DHT22;26030;51.164;17.100;2023-10-13T11:35:08;21.70;58.50
40323;DHT22;26030;51.164;17.100;2023-10-13T11:40:23;21.70;58.50
40323;DHT22;26030;51.164;17.100;2023-10-13T11:45:47;21.70;58.60
40323;DHT22;26030;51.164;17.100;2023-10-13T11:51:20;21.70;58.50
40323;DHT22;26030;51.164;17.100;2023-10-13T11:56:34;21.60;58.70
40323;DHT22;26030;51.164;17.100;2023-10-13T12:01:36;21.60;58.90
40323;DHT22;26030;51.164;17.100;2023-10-13T12:06:58;21.50;58.90
40323;DHT22;26030;51.164;17.100;2023-10-13T12:12:19;21.60;59.20
40323;DHT22;26030;51.164;17.100;2023-10-13T12:17:22;21.60;59.00
40323;DHT22;26030;51.164;17.100;2023-10-13T12:22:31;21.50;59.00
40323;DHT22;26030;51.164;17.100;2023-10-13T12:27:47;21.50;58.90
40323;DHT22;26030;51.164;17.100;2023-10-13T12:32:58;21.50;59.00
40323;DHT22;26030;51.164;17.100;2023-10-13T12:38:11;21.50;59.00
40323;DHT22;26030;51.164;17.100;2023-10-13T12:43:39;21.50;59.10
40323;DHT22;26030;51.164;17.100;2023-10-13T12:49:14;21.50;58.90
40323;DHT22;26030;51.164;17.100;2023-10-13T12:54:35;21.50;59.00
40323;DHT22;26030;51.164;17.100;2023-10-13T12:59:38;21.50;59.10
40323;DHT22;26030;51.164;17.100;2023-10-13T13:04:41;21.40;59.20
40323;DHT22;26030;51.164;17.100;2023-10-13T13:09:47;21.40;59.30
40323;DHT22;26030;51.164;17.100;2023-10-13T13:14:49;21.40;59.30
40323;DHT22;26030;51.164;17.100;2023-10-13T13:19:57;21.50;59.20
40323;DHT22;26030;51.164;17.100;2023-10-13T13:25:00;21.50;59.30
40323;DHT22;26030;51.164;17.100;2023-10-13T13:30:03;21.40;59.40
40323;DHT22;26030;51.164;17.100;2023-10-13T13:35:14;21.40;59.50
40323;DHT22;26030;51.164;17.100;2023-10-13T13:40:19;21.40;59.50
40323;DHT22;26030;51.164;17.100;2023-10-13T13:45:24;21.30;59.50
40323;DHT22;26030;51.164;17.100;2023-10-13T13:50:30;21.30;59.50
40323;DHT22;26030;51.164;17.100;2023-10-13T13:55:35;21.30;59.60
40323;DHT22;26030;51.164;17.100;2023-10-13T14:00:38;21.30;59.90
40323;DHT22;26030;51.164;17.100;2023-10-13T14:05:42;21.30;59.60
40323;DHT22;26030;51.164;17.100;2023-10-13T14:10:45;21.30;59.60
40323;DHT22;26030;51.164;17.100;2023-10-13T14:16:07;21.30;60.00
40323;DHT22;26030;51.164;17.100;2023-10-13T14:21:19;21.30;59.70
40323;DHT22;26030;51.164;17.100;2023-10-13T14:26:22;21.30;59.70
40323;DHT22;26030;51.164;17.100;2023-10-13T14:31:27;21.30;59.70
40323;DHT22;26030;51.164;17.100;2023-10-13T14:36:30;21.30;59.70
40323;DHT22;26030;51.164;17.100;2023-10-13T14:41:37;21.30;59.70
40323;DHT22;26030;51.164;17.100;2023-10-13T14:46:42;21.30;60.00
40323;DHT22;26030;51.164;17.100;2023-10-13T14:51:45;21.30;59.70
40323;DHT22;26030;51.164;17.100;2023-10-13T14:56:48;21.20;59.80
40323;DHT22;26030;51.164;17.100;2023-10-13T15:01:51;21.20;59.80
40323;DHT22;26030;51.164;17.100;2023-10-13T15:06:54;21.20;59.80
40323;DHT22;26030;51.164;17.100;2023-10-13T15:11:57;21.20;59.90
40323;DHT22;26030;51.164;17.100;2023-10-13T15:17:00;21.20;59.80
40323;DHT22;26030;51.164;17.100;2023-10-13T15:22:03;21.20;59.80
40323;DHT22;26030;51.164;17.100;2023-10-13T15:27:08;21.20;59.90
40323;DHT22;26030;51.164;17.100;2023-10-13T15:32:10;21.20;60.00
40323;DHT22;26030;51.164;17.100;2023-10-13T15:37:33;21.20;60.00
40323;DHT22;26030;51.164;17.100;2023-10-13T15:42:36;21.20;60.10
40323;DHT22;26030;51.164;17.100;2023-10-13T15:47:44;21.10;60.10
40323;DHT22;26030;51.164;17.100;2023-10-13T15:53:08;21.10;60.10
40323;DHT22;26030;51.164;17.100;2023-10-13T15:58:15;21.10;60.10
40323;DHT22;26030;51.164;17.100;2023-10-13T16:03:18;21.10;60.10
40323;DHT22;26030;51.164;17.100;2023-10-13T16:08:21;21.10;60.10
40323;DHT22;26030;51.164;17.100;2023-10-13T16:13:24;21.20;60.60
40323;DHT22;26030;51.164;17.100;2023-10-13T16:18:26;21.10;60.20
40323;DHT22;26030;51.164;17.100;2023-10-13T16:23:31;21.10;60.20
40323;DHT22;26030;51.164;17.100;2023-10-13T16:28:37;21.10;60.30
40323;DHT22;26030;51.164;17.100;2023-10-13T16:33:41;21.10;60.30
40323;DHT22;26030;51.164;17.100;2023-10-13T16:38:43;21.10;60.30
40323;DHT22;26030;51.164;17.100;2023-10-13T16:43:48;21.10;60.50
40323;DHT22;26030;51.164;17.100;2023-10-13T16:48:51;21.10;60.60
40323;DHT22;26030;51.164;17.100;2023-10-13T16:53:54;21.10;60.60
40323;DHT22;26030;51.164;17.100;2023-10-13T16:58:57;21.10;60.60
40323;DHT22;26030;51.164;17.100;2023-10-13T17:04:00;21.10;60.60
40323;DHT22;26030;51.164;17.100;2023-10-13T17:09:03;21.00;60.70
40323;DHT22;26030;51.164;17.100;2023-10-13T17:14:07;21.10;60.80
40323;DHT22;26030;51.164;17.100;2023-10-13T17:19:10;21.00;60.80
40323;DHT22;26030;51.164;17.100;2023-10-13T17:24:12;21.00;60.80
40323;DHT22;26030;51.164;17.100;2023-10-13T17:29:16;21.00;60.80
40323;DHT22;26030;51.164;17.100;2023-10-13T17:34:19;21.00;60.90
40323;DHT22;26030;51.164;17.100;2023-10-13T17:39:22;21.00;60.90
40323;DHT22;26030;51.164;17.100;2023-10-13T17:44:26;21.00;61.00
40323;DHT22;26030;51.164;17.100;2023-10-13T17:49:29;21.00;60.90
40323;DHT22;26030;51.164;17.100;2023-10-13T17:54:32;21.00;60.90
40323;DHT22;26030;51.164;17.100;2023-10-13T17:59:35;21.00;60.90
40323;DHT22;26030;51.164;17.100;2023-10-13T18:04:41;21.00;61.00
40323;DHT22;26030;51.164;17.100;2023-10-13T18:09:44;21.00;60.90
40323;DHT22;26030;51.164;17.100;2023-10-13T18:14:47;21.00;61.00
40323;DHT22;26030;51.164;17.100;2023-10-13T18:19:51;21.00;61.00
40323;DHT22;26030;51.164;17.100;2023-10-13T18:24:54;21.00;61.00
40323;DHT22;26030;51.164;17.100;2023-10-13T18:29:57;21.00;61.10
40323;DHT22;26030;51.164;17.100;2023-10-13T18:35:01;21.00;61.10
40323;DHT22;26030;51.164;17.100;2023-10-13T18:40:04;21.00;61.00
40323;DHT22;26030;51.164;17.100;2023-10-13T18:45:11;21.00;61.30
40323;DHT22;26030;51.164;17.100;2023-10-13T18:50:16;21.00;60.90
40323;DHT22;26030;51.164;17.100;2023-10-13T18:55:19;21.10;61.00
40323;DHT22;26030;51.164;17.100;2023-10-13T19:00:23;21.00;61.40
40323;DHT22;26030;51.164;17.100;2023-10-13T19:05:27;21.00;60.90
40323;DHT22;26030;51.164;17.100;2023-10-13T19:10:30;21.00;61.00
40323;DHT22;26030;51.164;17.100;2023-10-13T19:15:35;21.10;60.90
40323;DHT22;26030;51.164;17.100;2023-10-13T19:20:39;21.10;61.20
40323;DHT22;26030;51.164;17.100;2023-10-13T19:25:43;21.00;60.80
40323;DHT22;26030;51.164;17.100;2023-10-13T19:30:47;21.10;60.80
40323;DHT22;26030;51.164;17.100;2023-10-13T19:35:51;21.00;61.00
40323;DHT22;26030;51.164;17.100;2023-10-13T19:40:56;21.00;60.90
40323;DHT22;26030;51.164;17.100;2023-10-13T19:46:04;21.10;60.60
40323;DHT22;26030;51.164;17.100;2023-10-13T19:51:08;21.00;60.70
40323;DHT22;26030;51.164;17.100;2023-10-13T19:56:18;21.00;60.70
40323;DHT22;26030;51.164;17.100;2023-10-13T20:01:24;21.00;60.80
40323;DHT22;26030;51.164;17.100;2023-10-13T20:06:32;21.00;60.80
40323;DHT22;26030;51.164;17.100;2023-10-13T20:11:36;21.00;61.00
40323;DHT22;26030;51.164;17.100;2023-10-13T20:16:40;21.00;60.70
40323;DHT22;26030;51.164;17.100;2023-10-13T20:21:43;21.00;60.70
40323;DHT22;26030;51.164;17.100;2023-10-13T20:26:50;20.90;60.90
40323;DHT22;26030;51.164;17.100;2023-10-13T20:31:54;20.90;60.90
40323;DHT22;26030;51.164;17.100;2023-10-13T20:36:59;21.00;60.80
40323;DHT22;26030;51.164;17.100;2023-10-13T20:42:01;21.00;60.80
40323;DHT22;26030;51.164;17.100;2023-10-13T20:47:07;21.00;60.70
40323;DHT22;26030;51.164;17.100;2023-10-13T20:52:13;20.90;60.80
40323;DHT22;26030;51.164;17.100;2023-10-13T20:57:17;21.00;60.80
40323;DHT22;26030;51.164;17.100;2023-10-13T21:02:23;20.90;61.00
40323;DHT22;26030;51.164;17.100;2023-10-13T21:07:25;20.90;61.20
40323;DHT22;26030;51.164;17.100;2023-10-13T21:12:28;20.90;61.50
40323;DHT22;26030;51.164;17.100;2023-10-13T21:17:31;20.90;61.50
40323;DHT22;26030;51.164;17.100;2023-10-13T21:22:36;20.90;60.90
40323;DHT22;26030;51.164;17.100;2023-10-13T21:27:41;20.90;60.90
40323;DHT22;26030;51.164;17.100;2023-10-13T21:32:45;20.90;60.90
40323;DHT22;26030;51.164;17.100;2023-10-13T21:37:50;20.90;60.80
40323;DHT22;26030;51.164;17.100;2023-10-13T21:42:54;20.90;60.80
40323;DHT22;26030;51.164;17.100;2023-10-13T21:47:58;20.90;60.60
40323;DHT22;26030;51.164;17.100;2023-10-13T21:53:05;20.90;60.90
40323;DHT22;26030;51.164;17.100;2023-10-13T21:58:09;20.90;60.90
40323;DHT22;26030;51.164;17.100;2023-10-13T22:03:12;20.90;60.90
40323;DHT22;26030;51.164;17.100;2023-10-13T22:08:16;20.90;60.90
40323;DHT22;26030;51.164;17.100;2023-10-13T22:13:20;20.90;60.90
40323;DHT22;26030;51.164;17.100;2023-10-13T22:18:22;20.90;60.70
40323;DHT22;26030;51.164;17.100;2023-10-13T22:23:25;20.90;60.60
40323;DHT22;26030;51.164;17.100;2023-10-13T22:28:28;20.90;60.80
40323;DHT22;26030;51.164;17.100;2023-10-13T22:33:30;20.90;60.70
40323;DHT22;26030;51.164;17.100;2023-10-13T22:38:33;20.90;60.70
40323;DHT22;26030;51.164;17.100;2023-10-13T22:43:37;20.90;60.70
40323;DHT22;26030;51.164;17.100;2023-10-13T22:48:43;20.90;60.80
40323;DHT22;26030;51.164;17.100;2023-10-13T22:53:46;20.90;60.80
40323;DHT22;26030;51.164;17.100;2023-10-13T22:58:49;20.90;60.80
40323;DHT22;26030;51.164;17.100;2023-10-13T23:03:51;20.80;60.80
40323;DHT22;26030;51.164;17.100;2023-10-13T23:09:01;20.90;60.80
40323;DHT22;26030;51.164;17.100;2023-10-13T23:14:17;20.80;60.80
40323;DHT22;26030;51.164;17.100;2023-10-13T23:19:21;20.80;60.70
40323;DHT22;26030;51.164;17.100;2023-10-13T23:24:27;20.80;60.70
40323;DHT22;26030;51.164;17.100;2023-10-13T23:29:31;20.80;60.80
40323;DHT22;26030;51.164;17.100;2023-10-13T23:34:33;20.80;60.80
40323;DHT22;26030;51.164;17.100;2023-10-13T23:39:36;20.80;61.10
40323;DHT22;26030;51.164;17.100;2023-10-13T23:44:40;20.80;60.80
40323;DHT22;26030;51.164;17.100;2023-10-13T23:49:49;20.80;60.80
40323;DHT22;26030;51.164;17.100;2023-10-13T23:54:52;20.80;61.10
40323;DHT22;26030;51.164;17.100;2023-10-13T23:59:58;20.80;60.70
